Time;durP1;ratioP1;P1;durP2;ratioP2;P2;SDS_P1;SDS_P2;PMS_P1;PMS_P2;Temp;Humidity;BMP_temperature;BMP_pressure;BME280_temperature;BME280_humidity;BME280_pressure;Samples;Min_cycle;Max_cycle;Signal;HPM_P1;HPM_P2
2021/04/06 00:00:45;;;;;;;7.32;5.60;;;;;;;23.64;38.67;94125.31;5027584;28;20029;-71
2021/04/06 00:03:15;;;;;;;6.85;5.20;;;;;;;23.58;38.47;94106.34;5010884;28;20497;-70
2021/04/06 00:05:41;;;;;;;8.30;5.68;;;;;;;23.52;38.65;94096.84;5012644;28;20399;-70
2021/04/06 00:08:06;;;;;;;7.20;5.28;;;;;;;23.56;38.64;94108.16;5027500;28;20049;-70
2021/04/06 00:10:37;;;;;;;7.22;5.10;;;;;;;23.58;38.59;94108.34;5027263;28;20065;-70
2021/04/06 00:13:02;;;;;;;7.88;5.00;;;;;;;23.56;38.41;94097.97;5027398;28;20030;-70
2021/04/06 00:15:28;;;;;;;7.45;5.28;;;;;;;23.49;38.33;94087.00;5027392;28;20396;-70
2021/04/06 00:17:56;;;;;;;7.57;5.03;;;;;;;23.58;38.12;94097.44;5028950;28;20029;-70
2021/04/06 00:20:21;;;;;;;6.35;5.03;;;;;;;23.56;38.73;94092.50;5030723;28;20441;-70
2021/04/06 00:22:47;;;;;;;6.45;5.20;;;;;;;23.55;38.73;94084.88;5030538;28;20033;-70
2021/04/06 00:25:17;;;;;;;7.50;5.38;;;;;;;23.53;38.53;94081.97;5032045;28;20060;-70
2021/04/06 00:27:42;;;;;;;;;;;;;;;23.50;38.77;94072.13;5030828;28;20029;-70
2021/04/06 00:30:09;;;;;;;6.95;5.35;;;;;;;23.44;38.57;94055.16;5031702;28;19968;-70
2021/04/06 00:32:35;;;;;;;7.63;5.47;;;;;;;23.53;38.42;94065.59;5030416;28;20076;-70
2021/04/06 00:35:01;;;;;;;7.43;5.88;;;;;;;23.52;38.50;94059.41;5046822;28;20022;-72
2021/04/06 00:37:28;;;;;;;7.88;5.03;;;;;;;23.45;38.46;94048.44;5047066;28;20025;-72
2021/04/06 00:40:07;;;;;;;7.80;5.53;;;;;;;23.53;38.70;94054.69;5030343;28;20469;-72
2021/04/06 00:42:33;;;;;;;8.02;5.32;;;;;;;23.52;38.70;94053.94;5031140;28;20065;-70
2021/04/06 00:45:03;;;;;;;7.55;5.63;;;;;;;23.49;38.43;94043.41;5046507;28;20033;-69
2021/04/06 00:47:29;;;;;;;7.15;5.80;;;;;;;23.51;38.55;94046.31;5012895;28;20036;-70
2021/04/06 00:50:03;;;;;;;7.82;6.00;;;;;;;23.44;38.98;94036.81;5031282;28;20532;-70
2021/04/06 00:52:28;;;;;;;8.27;5.53;;;;;;;23.46;38.65;94039.00;5030956;28;20025;-70
2021/04/06 00:54:57;;;;;;;6.82;5.45;;;;;;;23.44;38.55;94025.19;5030941;28;20040;-72
2021/04/06 00:57:24;;;;;;;8.10;5.68;;;;;;;23.46;38.27;94022.66;5046878;28;20034;-70
2021/04/06 01:00:31;;;;;;;7.28;5.45;;;;;;;23.49;38.95;94021.59;5046329;28;20022;-70
2021/04/06 01:02:57;;;;;;;7.10;5.40;;;;;;;23.50;38.56;94017.63;5030380;28;20458;-70
2021/04/06 01:05:22;;;;;;;7.13;5.32;;;;;;;23.50;38.76;94012.16;5031063;28;20032;-70
2021/04/06 01:07:47;;;;;;;6.55;5.30;;;;;;;23.42;38.55;94011.34;5030978;28;20026;-70
2021/04/06 01:10:13;;;;;;;6.78;5.47;;;;;;;23.40;38.50;94003.00;5029841;28;20029;-70
2021/04/06 01:12:38;;;;;;;7.40;5.38;;;;;;;23.42;38.93;94017.56;5029295;28;20058;-70
2021/04/06 01:15:04;;;;;;;7.28;5.05;;;;;;;23.43;38.48;94029.19;5030586;28;20040;-71
2021/04/06 01:17:32;;;;;;;7.70;5.32;;;;;;;23.44;38.65;94025.19;5016134;28;20041;-70
2021/04/06 01:20:08;;;;;;;7.03;5.38;;;;;;;23.43;38.83;94018.28;5023652;28;20045;-70
2021/04/06 01:22:34;;;;;;;7.70;5.72;;;;;;;23.45;38.53;94010.28;5029684;28;20083;-70
2021/04/06 01:24:59;;;;;;;7.88;5.43;;;;;;;23.46;38.26;94011.75;5010814;28;20030;-70
2021/04/06 01:27:25;;;;;;;8.48;5.65;;;;;;;23.47;38.47;93999.63;5010796;28;20113;-70
2021/04/06 01:29:55;;;;;;;6.85;5.45;;;;;;;23.44;38.73;94003.41;5023505;28;20038;-70
2021/04/06 01:32:22;;;;;;;8.57;5.90;;;;;;;23.42;38.38;94005.91;5029197;28;20037;-70
2021/04/06 01:34:48;;;;;;;7.32;5.57;;;;;;;23.39;38.85;94002.28;5029438;28;20044;-70
2021/04/06 01:37:17;;;;;;;6.93;5.28;;;;;;;23.40;38.77;93992.09;5029303;28;20032;-70
2021/04/06 01:39:43;;;;;;;8.30;6.07;;;;;;;23.39;38.89;93996.06;5029936;28;20021;-70
2021/04/06 01:42:09;;;;;;;7.85;5.63;;;;;;;23.37;38.44;93999.34;5045782;28;20028;-70
2021/04/06 01:44:36;;;;;;;7.22;5.25;;;;;;;23.40;38.55;93997.53;5030276;28;20208;-70
2021/04/06 01:47:02;;;;;;;8.15;5.97;;;;;;;23.40;38.24;93997.53;5028708;28;20040;-70
2021/04/06 01:49:27;;;;;;;7.38;5.63;;;;;;;23.42;38.42;94000.47;5028732;28;20022;-70
2021/04/06 01:51:54;;;;;;;7.00;5.70;;;;;;;23.44;38.27;93997.94;5029938;28;20033;-70
2021/04/06 01:54:19;;;;;;;5.70;4.72;;;;;;;23.42;38.46;94006.66;5030298;28;20079;-70
2021/04/06 01:56:49;;;;;;;7.10;5.30;;;;;;;23.34;38.46;93988.78;5028868;28;20029;-70
2021/04/06 01:59:18;;;;;;;6.80;5.45;;;;;;;23.38;38.93;93995.34;5028386;28;20482;-70
2021/04/06 02:01:52;;;;;;;8.05;5.60;;;;;;;23.40;38.70;93992.09;5028888;28;20033;-70
2021/04/06 02:04:25;;;;;;;7.28;5.00;;;;;;;23.38;38.35;93989.19;5030007;28;20437;-70
2021/04/06 02:06:51;;;;;;;7.38;5.18;;;;;;;23.37;38.38;93985.72;5029934;28;20029;-70
2021/04/06 02:09:18;;;;;;;7.90;5.40;;;;;;;23.39;38.45;93985.19;5029576;28;20421;-70
2021/04/06 02:11:45;;;;;;;8.73;5.53;;;;;;;23.33;38.62;93970.97;5028697;28;20059;-70
2021/04/06 02:14:18;;;;;;;7.03;5.00;;;;;;;23.39;38.40;93974.28;5028313;28;20025;-70
2021/04/06 02:16:50;;;;;;;6.63;5.00;;;;;;;23.38;38.72;93972.84;5045474;28;20029;-70
2021/04/06 02:19:32;;;;;;;6.88;5.28;;;;;;;23.38;38.17;93967.38;5029587;28;20025;-70
2021/04/06 02:22:02;;;;;;;7.20;5.47;;;;;;;23.35;38.60;93979.34;5029623;28;20032;-69
2021/04/06 02:24:44;;;;;;;7.15;5.40;;;;;;;23.24;38.46;93962.53;5029711;28;20025;-70
2021/04/06 02:27:29;;;;;;;7.50;5.38;;;;;;;23.37;38.16;93976.81;5044989;28;20124;-70
2021/04/06 02:29:56;;;;;;;7.18;5.22;;;;;;;23.35;38.66;93982.09;5029569;28;20036;-70
2021/04/06 02:32:27;;;;;;;7.55;5.15;;;;;;;23.36;38.50;93974.63;5029457;28;20486;-72
2021/04/06 02:34:54;;;;;;;7.70;5.18;;;;;;;23.38;38.65;93978.28;5029197;28;20033;-69
2021/04/06 02:37:24;;;;;;;6.50;4.93;;;;;;;23.36;38.69;93958.28;5025238;28;20087;-72
2021/04/06 02:39:52;;;;;;;6.63;5.35;;;;;;;23.31;38.42;93961.88;5029389;28;20021;-72
2021/04/06 02:42:28;;;;;;;6.80;5.03;;;;;;;23.37;38.34;93977.53;5027858;28;20036;-72
2021/04/06 02:45:13;;;;;;;5.60;4.78;;;;;;;23.27;38.65;93961.47;5028047;28;20037;-70
2021/04/06 02:47:42;;;;;;;6.00;4.72;;;;;;;23.31;38.44;93978.94;5028223;28;20060;-72
2021/04/06 02:50:12;;;;;;;7.03;4.90;;;;;;;23.32;38.89;93974.97;5029035;28;20029;-70
2021/04/06 02:52:38;;;;;;;5.72;4.65;;;;;;;23.18;38.50;93949.06;5027677;28;20025;-70
2021/04/06 02:55:05;;;;;;;7.38;4.85;;;;;;;23.32;38.21;93969.53;5011350;28;20017;-69
2021/04/06 02:57:31;;;;;;;6.63;4.88;;;;;;;23.34;38.38;93967.00;5029041;28;20045;-70
2021/04/06 02:59:56;;;;;;;6.10;4.75;;;;;;;23.28;38.41;93958.22;5027432;28;20083;-70
2021/04/06 03:02:22;;;;;;;6.75;5.00;;;;;;;23.35;38.56;93963.00;5024334;28;20022;-70
2021/04/06 03:04:48;;;;;;;6.20;4.47;;;;;;;23.33;38.54;93960.06;5043313;28;20041;-69
2021/04/06 03:07:16;;;;;;;5.68;4.63;;;;;;;23.34;38.50;93969.72;5028597;28;20566;-70
2021/04/06 03:09:55;;;;;;;7.40;4.97;;;;;;;23.26;38.69;93958.03;5020233;28;20034;-70
2021/04/06 03:12:21;;;;;;;6.07;4.75;;;;;;;23.29;38.48;93962.41;5040310;28;20498;-70
2021/04/06 03:14:48;;;;;;;6.80;5.22;;;;;;;23.29;38.54;93967.88;5027546;28;20037;-69
2021/04/06 03:17:13;;;;;;;5.85;4.40;;;;;;;23.32;38.62;93958.63;5027215;28;20524;-70
2021/04/06 03:19:39;;;;;;;6.53;4.82;;;;;;;23.29;38.31;93948.81;5028686;28;20024;-71
2021/04/06 03:22:05;;;;;;;6.70;4.03;;;;;;;23.34;38.36;93945.19;5027628;28;20025;-70
2021/04/06 03:24:31;;;;;;;5.75;4.70;;;;;;;23.34;38.26;93953.38;5027496;28;20086;-71
2021/04/06 03:27:06;;;;;;;5.82;4.40;;;;;;;23.34;38.41;93956.09;5028305;28;20037;-70
2021/04/06 03:29:31;;;;;;;5.40;4.38;;;;;;;23.33;38.38;93953.91;5028482;28;20128;-70
2021/04/06 03:31:57;;;;;;;6.38;4.43;;;;;;;23.29;38.58;93943.34;5028298;28;20442;-70
2021/04/06 03:34:28;;;;;;;5.55;4.30;;;;;;;23.28;38.53;93952.78;5027328;28;20506;-71
2021/04/06 03:36:54;;;;;;;6.88;5.25;;;;;;;23.29;38.28;93954.25;5027317;28;20072;-70
2021/04/06 03:39:19;;;;;;;6.13;4.28;;;;;;;23.31;38.18;93957.16;5010878;28;20017;-71
2021/04/06 03:41:45;;;;;;;5.82;4.43;;;;;;;23.33;38.72;93959.34;5010746;28;20026;-70
2021/04/06 03:44:11;;;;;;;6.00;4.70;;;;;;;23.28;38.65;93941.88;4995661;28;20045;-70
2021/04/06 03:46:38;;;;;;;6.00;4.45;;;;;;;23.32;38.64;93942.28;5008924;28;20025;-70
2021/04/06 03:49:21;;;;;;;5.53;4.35;;;;;;;23.30;38.19;93923.00;5027674;28;20163;-70
2021/04/06 03:51:57;;;;;;;5.63;4.13;;;;;;;23.34;38.40;93937.03;5022413;28;20030;-72
2021/04/06 03:54:36;;;;;;;6.20;4.15;;;;;;;23.39;38.31;93931.44;4974810;28;20495;-73
2021/04/06 03:57:20;;;;;;;6.65;4.70;;;;;;;23.35;38.19;93935.78;5029086;28;20022;-72
2021/04/06 03:59:45;;;;;;;5.18;4.30;;;;;;;23.43;38.51;93944.72;5021855;28;20521;-72
2021/04/06 04:02:11;;;;;;;8.20;4.25;;;;;;;23.45;38.47;93944.91;5024177;28;20036;-72
2021/04/06 04:04:38;;;;;;;5.25;4.20;;;;;;;23.40;38.40;93929.44;5021073;28;20120;-72
2021/04/06 04:07:03;;;;;;;5.50;3.97;;;;;;;23.54;37.92;93941.69;5022094;28;20036;-72
2021/04/06 04:09:29;;;;;;;5.03;3.80;;;;;;;23.61;38.24;93951.91;5037209;28;20030;-72
2021/04/06 04:11:54;;;;;;;5.85;4.38;;;;;;;23.69;37.64;93950.00;5021910;28;20032;-71
2021/04/06 04:14:20;;;;;;;4.63;3.70;;;;;;;23.72;37.80;93946.19;5024468;28;20411;-71
2021/04/06 04:16:45;;;;;;;4.95;4.10;;;;;;;23.75;37.47;93945.13;5027064;28;20430;-71
2021/04/06 04:19:11;;;;;;;6.18;4.47;;;;;;;23.89;37.23;93953.38;5024255;28;20513;-72
2021/04/06 04:21:37;;;;;;;4.88;4.10;;;;;;;23.95;37.51;93948.50;5037275;28;20025;-70
2021/04/06 04:24:03;;;;;;;5.53;3.95;;;;;;;24.05;37.01;93957.66;5042702;28;20029;-73
2021/04/06 04:26:28;;;;;;;4.88;4.00;;;;;;;24.10;36.72;93954.03;5042426;28;20029;-71
2021/04/06 04:28:54;;;;;;;4.63;3.80;;;;;;;24.20;36.95;93949.53;5045213;28;20083;-73
2021/04/06 04:31:19;;;;;;;5.38;3.78;;;;;;;24.27;36.33;93950.81;5058397;28;20017;-73
2021/04/06 04:33:45;;;;;;;5.15;3.88;;;;;;;24.39;36.48;93952.69;5062970;28;20025;-72
2021/04/06 04:36:10;;;;;;;5.35;3.90;;;;;;;24.54;36.38;93950.00;5040685;28;20087;-73
2021/04/06 04:38:36;;;;;;;4.32;3.58;;;;;;;24.55;36.37;93933.09;5055939;28;20029;-73
2021/04/06 04:41:01;;;;;;;4.60;3.70;;;;;;;24.72;35.87;93946.25;5025608;28;20091;-72
2021/04/06 04:43:27;;;;;;;5.10;3.78;;;;;;;24.81;35.83;93942.97;5029355;28;20057;-72
2021/04/06 04:45:52;;;;;;;5.15;4.15;;;;;;;24.86;35.82;93946.25;5021477;28;20032;-73
2021/04/06 04:48:18;;;;;;;5.30;3.90;;;;;;;24.89;35.45;93934.25;5030974;28;20029;-71
2021/04/06 04:50:43;;;;;;;4.47;3.75;;;;;;;24.93;34.89;93934.63;5023109;28;20034;-72
2021/04/06 04:53:09;;;;;;;4.72;3.90;;;;;;;24.98;35.04;93939.19;5031138;28;20025;-73
2021/04/06 04:55:34;;;;;;;4.68;3.60;;;;;;;25.01;35.44;93938.13;5019387;28;20034;-75
2021/04/06 04:58:00;;;;;;;5.65;3.80;;;;;;;25.11;34.92;93943.75;5029790;28;20022;-72
2021/04/06 05:00:25;;;;;;;4.88;3.80;;;;;;;25.20;34.90;93930.28;5029066;28;20037;-73
2021/04/06 05:02:50;;;;;;;4.93;4.07;;;;;;;25.16;35.36;93919.00;5029244;28;20025;-73
2021/04/06 05:05:17;;;;;;;4.85;3.83;;;;;;;25.25;34.91;93932.09;5009288;28;20033;-71
2021/04/06 05:07:43;;;;;;;4.50;3.65;;;;;;;25.28;35.02;93933.75;5027902;28;20025;-72
2021/04/06 05:10:09;;;;;;;5.10;3.70;;;;;;;25.34;34.76;93934.28;5012872;28;20040;-71
2021/04/06 05:12:35;;;;;;;4.30;3.30;;;;;;;25.40;35.04;93932.09;5030225;28;20417;-72
2021/04/06 05:15:01;;;;;;;5.35;3.67;;;;;;;25.38;35.28;93929.91;5029110;28;20083;-72
2021/04/06 05:17:27;;;;;;;5.85;3.70;;;;;;;25.40;34.57;93921.16;5029014;28;20017;-71
2021/04/06 05:19:52;;;;;;;5.05;3.88;;;;;;;25.54;34.86;93936.09;5029221;28;20029;-72
2021/04/06 05:22:17;;;;;;;4.55;3.58;;;;;;;25.51;34.99;93931.72;5028796;28;20025;-70
2021/04/06 05:24:43;;;;;;;4.70;3.50;;;;;;;25.54;34.65;93936.09;5030828;28;20033;-71
2021/04/06 05:27:08;;;;;;;4.28;3.38;;;;;;;25.52;34.43;93927.72;5030134;28;20128;-70
2021/04/06 05:29:34;;;;;;;4.47;3.35;;;;;;;25.59;34.74;93935.16;5024085;28;20044;-70
2021/04/06 05:31:59;;;;;;;3.70;3.08;;;;;;;25.45;34.49;93917.50;5029709;28;20028;-70
2021/04/06 05:34:25;;;;;;;5.30;3.38;;;;;;;25.54;34.49;93914.22;5029940;28;20022;-70
2021/04/06 05:36:50;;;;;;;6.20;3.70;;;;;;;25.69;34.41;93936.09;5043330;28;20098;-69
2021/04/06 05:39:16;;;;;;;6.20;3.65;;;;;;;25.74;34.58;93921.47;5038919;28;20048;-70
2021/04/06 05:41:43;;;;;;;5.13;3.70;;;;;;;25.80;34.14;93920.75;5053171;28;20029;-70
2021/04/06 05:44:08;;;;;;;4.63;3.30;;;;;;;25.83;34.44;93930.59;5029262;28;20033;-71
2021/04/06 05:46:35;;;;;;;4.10;3.20;;;;;;;25.80;34.10;93915.28;5029053;28;20470;-72
2021/04/06 05:49:16;;;;;;;4.22;3.33;;;;;;;25.89;34.31;93917.44;5031308;28;20131;-70
2021/04/06 05:51:42;;;;;;;4.07;3.28;;;;;;;25.91;34.31;93914.88;5028346;28;20033;-70
2021/04/06 05:54:10;;;;;;;4.32;3.30;;;;;;;25.93;34.24;93919.78;5035705;28;20687;-71
2021/04/06 05:56:36;;;;;;;4.05;2.97;;;;;;;25.83;33.89;93914.19;5040600;28;20036;-71
2021/04/06 05:59:02;;;;;;;3.97;3.20;;;;;;;25.95;34.22;93923.44;5058639;28;20406;-70
2021/04/06 06:01:28;;;;;;;4.65;3.42;;;;;;;25.89;33.93;93911.97;5019485;28;20037;-70
2021/04/06 06:03:53;;;;;;;3.92;3.42;;;;;;;26.01;33.89;93913.03;5043048;28;20083;-70
2021/04/06 06:06:19;;;;;;;3.70;2.90;;;;;;;26.05;34.15;93907.91;5020610;28;20468;-70
2021/04/06 06:08:52;;;;;;;5.00;3.40;;;;;;;26.07;34.00;93899.13;5058044;28;20025;-75
2021/04/06 06:11:18;;;;;;;6.22;3.78;;;;;;;26.08;33.33;93906.06;5027713;28;20052;-71
2021/04/06 06:13:43;;;;;;;7.35;3.72;;;;;;;26.23;33.86;93900.53;5023505;28;20429;-70
2021/04/06 06:16:10;;;;;;;4.55;3.20;;;;;;;26.15;34.29;93878.66;5037759;28;20040;-71
2021/04/06 06:18:58;;;;;;;4.55;3.30;;;;;;;26.12;34.18;93915.34;5042856;28;20035;-70
2021/04/06 06:21:36;;;;;;;4.80;3.22;;;;;;;26.24;33.80;93896.50;5041383;28;20498;-70
2021/04/06 06:24:03;;;;;;;3.15;2.60;;;;;;;26.24;33.75;93899.97;5034865;28;20034;-70
2021/04/06 06:26:28;;;;;;;4.15;3.15;;;;;;;26.23;33.73;93901.25;5040852;28;20084;-71
2021/04/06 06:29:05;;;;;;;5.28;3.33;;;;;;;26.16;33.83;93896.53;5039583;28;20037;-71
2021/04/06 06:31:40;;;;;;;5.25;3.00;;;;;;;26.09;34.25;93883.63;5041921;28;20413;-71
2021/04/06 06:34:35;;;;;;;5.07;3.30;;;;;;;26.08;34.49;93895.84;5039880;28;20060;-70
2021/04/06 06:37:17;;;;;;;4.82;3.10;;;;;;;26.00;34.62;93892.41;5036455;28;20025;-70
2021/04/06 06:39:54;;;;;;;4.30;3.35;;;;;;;25.96;35.00;93883.13;5033880;28;20116;-71
2021/04/06 06:42:28;;;;;;;4.65;3.33;;;;;;;25.82;35.03;93885.34;5045217;28;20569;-70
2021/04/06 06:44:53;;;;;;;3.70;2.90;;;;;;;25.83;35.02;93886.81;5018206;28;20402;-71
2021/04/06 06:47:21;;;;;;;5.13;3.50;;;;;;;25.82;34.84;93879.16;5045145;28;20028;-71
2021/04/06 06:49:47;;;;;;;4.95;3.65;;;;;;;25.74;35.07;93878.47;5037054;28;20482;-71
2021/04/06 06:52:21;;;;;;;4.10;3.28;;;;;;;25.68;35.21;93877.19;5031781;28;20032;-68
2021/04/06 06:54:46;;;;;;;5.47;3.65;;;;;;;25.58;35.69;93876.31;5016500;28;20148;-68
2021/04/06 06:57:14;;;;;;;5.00;3.20;;;;;;;25.58;35.97;93870.84;5025653;28;20561;-69
2021/04/06 06:59:45;;;;;;;4.82;3.13;;;;;;;25.51;35.05;93866.09;5027559;28;20052;-68
2021/04/06 07:02:27;;;;;;;5.47;3.30;;;;;;;25.47;35.89;93871.19;5026763;28;20167;-69
2021/04/06 07:04:53;;;;;;;5.10;3.22;;;;;;;25.42;35.91;93858.47;5027426;28;20118;-68
2021/04/06 07:07:19;;;;;;;4.88;3.40;;;;;;;25.40;35.56;93861.03;5033369;28;20112;-68
2021/04/06 07:09:45;;;;;;;4.88;3.40;;;;;;;25.35;35.64;93859.94;5026983;28;20116;-69
2021/04/06 07:12:12;;;;;;;4.85;3.70;;;;;;;25.32;35.44;93855.59;5028268;28;20589;-69
2021/04/06 07:14:39;;;;;;;5.45;3.50;;;;;;;25.32;35.00;93854.88;5024559;28;20029;-69
2021/04/06 07:17:05;;;;;;;4.70;3.50;;;;;;;25.19;35.52;93857.78;5019708;28;20524;-67
2021/04/06 07:19:35;;;;;;;4.47;3.53;;;;;;;25.15;35.27;93854.69;5025964;28;20052;-69
2021/04/06 07:22:02;;;;;;;4.95;3.40;;;;;;;25.11;35.63;93857.06;5031114;28;20052;-68
2021/04/06 07:24:32;;;;;;;6.38;3.90;;;;;;;25.07;35.74;93856.72;5041339;28;20041;-68
2021/04/06 07:26:58;;;;;;;5.13;3.47;;;;;;;25.06;35.46;93855.25;5026027;28;20025;-69
2021/04/06 07:29:23;;;;;;;5.55;3.78;;;;;;;25.01;36.02;93858.91;5068502;28;20032;-69
2021/04/06 07:31:49;;;;;;;6.35;3.75;;;;;;;24.98;35.46;93846.31;5044776;28;20029;-69
2021/04/06 07:34:15;;;;;;;5.15;4.28;;;;;;;24.94;36.18;93848.66;5038450;28;20523;-69
2021/04/06 07:36:40;;;;;;;5.18;3.83;;;;;;;24.86;35.74;93831.56;5021828;28;20060;-69
2021/04/06 07:39:11;;;;;;;6.32;4.10;;;;;;;24.91;35.86;93838.84;5030141;28;20414;-69
2021/04/06 07:41:45;;;;;;;5.72;4.00;;;;;;;24.87;35.37;93843.94;5028454;28;20029;-69
2021/04/06 07:44:12;;;;;;;8.00;4.07;;;;;;;24.85;35.89;93841.03;5031167;28;20086;-69
2021/04/06 07:46:45;;;;;;;5.35;4.05;;;;;;;24.84;35.43;93836.09;5028999;28;20494;-69
2021/04/06 07:49:17;;;;;;;6.97;4.03;;;;;;;24.82;35.60;93835.22;5015852;28;20025;-69
2021/04/06 07:51:45;;;;;;;6.35;4.47;;;;;;;24.80;35.86;93829.56;5028579;28;20061;-69
2021/04/06 07:54:24;;;;;;;8.00;4.60;;;;;;;24.77;35.71;93833.38;5011840;28;20411;-69
2021/04/06 07:56:57;;;;;;;6.82;4.78;;;;;;;24.75;35.54;93828.47;5022056;28;20022;-69
2021/04/06 07:59:23;;;;;;;6.68;4.05;;;;;;;24.73;35.85;93816.66;5032309;28;20021;-69
2021/04/06 08:01:52;;;;;;;5.88;4.38;;;;;;;24.71;36.40;93819.19;5032107;28;20107;-69
2021/04/06 08:04:21;;;;;;;6.80;4.40;;;;;;;24.66;35.66;93817.38;5032261;28;20123;-69
2021/04/06 08:06:48;;;;;;;5.80;4.13;;;;;;;24.63;36.28;93818.47;5030863;28;20490;-68
2021/04/06 08:09:32;;;;;;;5.05;4.00;;;;;;;24.54;36.14;93805.34;5032250;28;20108;-68
2021/04/06 08:12:16;;;;;;;7.85;4.38;;;;;;;24.56;36.36;93811.00;5031966;28;20417;-68
2021/04/06 08:15:03;;;;;;;5.53;4.28;;;;;;;24.55;36.58;93787.72;5032264;28;20060;-68
2021/04/06 08:17:29;;;;;;;5.63;4.07;;;;;;;24.55;36.14;93793.16;5031541;28;20035;-70
2021/04/06 08:20:05;;;;;;;5.88;4.50;;;;;;;24.52;36.51;93780.63;5036134;28;20029;-70
2021/04/06 08:22:32;;;;;;;5.65;4.40;;;;;;;24.50;36.54;93783.16;5031917;28;20025;-70
2021/04/06 08:25:15;;;;;;;8.07;4.78;;;;;;;24.46;36.00;93777.34;5031844;28;20140;-68
2021/04/06 08:27:42;;;;;;;5.53;3.90;;;;;;;24.45;36.43;93773.88;5031802;28;20033;-69
2021/04/06 08:30:19;;;;;;;5.90;4.20;;;;;;;24.44;36.41;93768.97;5031976;28;20029;-68
2021/04/06 08:32:56;;;;;;;5.88;4.20;;;;;;;24.42;36.17;93771.50;5031607;28;20102;-68
2021/04/06 08:35:47;;;;;;;5.57;4.18;;;;;;;24.39;36.63;93750.78;5030904;28;20506;-68
2021/04/06 08:38:21;;;;;;;7.15;4.25;;;;;;;24.43;36.25;93751.13;5049346;28;20138;-68
2021/04/06 08:40:54;;;;;;;6.55;4.20;;;;;;;24.43;36.52;93753.88;5051569;28;20025;-69
2021/04/06 08:43:43;;;;;;;5.75;3.97;;;;;;;24.41;36.31;93748.25;5051413;28;20032;-69
2021/04/06 08:46:33;;;;;;;4.83;3.90;;;;;;;24.41;36.10;93742.78;5051068;28;20033;-69
2021/04/06 08:48:58;;;;;;;6.47;4.53;;;;;;;24.43;35.80;93746.41;5044027;28;20073;-68
2021/04/06 08:51:29;;;;;;;5.68;4.25;;;;;;;24.41;36.18;93735.31;5048169;28;20437;-71
2021/04/06 08:54:01;;;;;;;;;;;;;;;24.40;36.80;93730.41;5036477;28;20116;-84
2021/04/06 08:56:28;;;;;;;6.45;4.25;;;;;;;24.38;36.24;93732.97;5043722;28;19912;-74
2021/04/06 08:59:33;;;;;;;5.43;4.00;;;;;;;24.48;36.10;93725.66;5037889;28;20491;-73
2021/04/06 09:02:00;;;;;;;4.95;4.10;;;;;;;24.48;36.30;93725.66;5016004;28;20046;-74
2021/04/06 09:04:26;;;;;;;5.47;4.03;;;;;;;24.50;36.03;93728.59;5011174;28;20053;-71
2021/04/06 09:06:52;;;;;;;5.45;3.85;;;;;;;24.47;36.60;93724.22;5010503;28;20056;-72
2021/04/06 09:09:19;;;;;;;7.13;4.57;;;;;;;24.39;36.32;93712.56;5027008;28;20026;-71
2021/04/06 09:11:45;;;;;;;8.05;4.28;;;;;;;24.43;36.07;93718.41;5030775;28;20047;-71
2021/04/06 09:14:11;;;;;;;7.47;4.75;;;;;;;24.33;36.44;93698.38;5028911;28;20041;-71
2021/04/06 09:16:37;;;;;;;5.88;4.35;;;;;;;24.34;36.63;93716.22;5029127;28;20051;-72
2021/04/06 09:19:04;;;;;;;7.55;4.55;;;;;;;24.31;36.47;93711.81;5030526;28;20026;-71
2021/04/06 09:21:30;;;;;;;6.93;4.32;;;;;;;24.30;36.51;93699.44;5030675;28;20103;-71
2021/04/06 09:23:57;;;;;;;7.38;4.20;;;;;;;24.24;36.42;93684.53;5030775;28;20112;-71
2021/04/06 09:26:23;;;;;;;6.35;4.22;;;;;;;24.27;36.62;93695.06;5030827;28;20029;-71
2021/04/06 09:29:05;;;;;;;6.82;4.03;;;;;;;24.27;35.95;93695.06;5030146;28;20030;-71
2021/04/06 09:31:31;;;;;;;5.13;3.92;;;;;;;24.29;36.51;93686.34;5030385;28;20558;-71
2021/04/06 09:34:27;;;;;;;6.93;4.05;;;;;;;24.28;36.53;93680.16;5020868;28;20049;-71
2021/04/06 09:36:57;;;;;;;6.65;4.47;;;;;;;24.24;36.56;93668.88;5032741;28;20041;-71
2021/04/06 09:39:23;;;;;;;5.88;3.95;;;;;;;24.22;36.53;93671.44;5027966;28;20541;-71
2021/04/06 09:41:48;;;;;;;6.95;3.90;;;;;;;24.26;36.19;93677.28;5010318;28;20049;-71
2021/04/06 09:44:17;;;;;;;5.78;4.07;;;;;;;24.28;36.38;93674.72;5026225;28;20217;-71
2021/04/06 09:46:49;;;;;;;6.97;4.35;;;;;;;24.31;36.56;93676.34;5012403;28;20104;-74
2021/04/06 09:49:14;;;;;;;6.28;4.22;;;;;;;24.41;36.61;93672.53;5009013;28;20140;-71
2021/04/06 09:51:45;;;;;;;7.88;3.97;;;;;;;24.51;36.08;93659.06;5030951;28;20556;-75
2021/04/06 09:54:10;;;;;;;6.32;3.80;;;;;;;24.54;35.86;93649.78;5032057;28;20025;-75
2021/04/06 09:56:36;;;;;;;5.22;3.85;;;;;;;24.68;35.71;93662.69;5026193;28;20037;-71
2021/04/06 09:59:03;;;;;;;5.22;3.92;;;;;;;24.78;36.18;93655.34;5038859;28;20018;-72
2021/04/06 10:01:28;;;;;;;8.07;4.15;;;;;;;24.84;35.86;93637.50;5043261;28;20032;-73
2021/04/06 10:03:59;;;;;;;7.82;3.90;;;;;;;24.94;35.28;93630.16;5031049;28;20057;-73
2021/04/06 10:06:38;;;;;;;7.13;3.80;;;;;;;25.03;35.44;93632.34;5044060;28;20044;-73
2021/04/06 10:09:25;;;;;;;6.03;3.80;;;;;;;25.18;35.59;93621.34;5026729;28;20035;-73
2021/04/06 10:11:52;;;;;;;6.10;3.80;;;;;;;25.28;34.82;93608.56;5028951;28;20805;-73
2021/04/06 10:14:17;;;;;;;5.22;3.88;;;;;;;25.40;35.16;93606.84;5021820;28;20037;-73
2021/04/06 10:16:43;;;;;;;6.03;3.80;;;;;;;25.49;35.10;93606.25;5029766;28;20033;-72
2021/04/06 10:19:19;;;;;;;4.78;3.95;;;;;;;25.58;34.67;93594.69;5019824;28;20030;-75
2021/04/06 10:22:06;;;;;;;7.00;3.92;;;;;;;25.66;34.41;93581.72;5016995;28;20041;-70
2021/04/06 10:24:33;;;;;;;5.57;3.90;;;;;;;25.79;34.22;93578.72;5037275;28;20112;-72
2021/04/06 10:27:09;;;;;;;5.63;3.80;;;;;;;25.81;33.68;93561.19;5046702;28;20024;-72
2021/04/06 10:29:34;;;;;;;6.63;4.13;;;;;;;25.99;33.96;93565.41;5039405;28;20516;-71
2021/04/06 10:32:00;;;;;;;4.65;3.70;;;;;;;26.02;33.60;93553.34;5028388;28;20488;-77
2021/04/06 10:34:26;;;;;;;5.47;3.83;;;;;;;26.20;33.84;93563.00;5010025;28;20030;-76
2021/04/06 10:37:09;;;;;;;4.95;3.72;;;;;;;26.34;33.61;93555.97;5028730;28;20414;-76
2021/04/06 10:39:40;;;;;;;5.40;3.78;;;;;;;26.41;33.29;93555.13;5027309;28;20022;-71
2021/04/06 10:42:10;;;;;;;6.38;3.53;;;;;;;26.43;33.45;93536.16;5033975;28;20024;-71
2021/04/06 10:44:35;;;;;;;7.22;3.90;;;;;;;26.38;33.54;93545.31;5047133;28;20029;-74
2021/04/06 10:47:01;;;;;;;5.45;3.53;;;;;;;26.38;33.80;93523.41;5044719;28;20047;-74
2021/04/06 10:49:26;;;;;;;4.20;3.25;;;;;;;26.40;33.32;93526.34;5050296;28;20040;-75
2021/04/06 10:51:53;;;;;;;4.50;3.55;;;;;;;26.41;33.45;93516.81;5041235;28;20024;-74
2021/04/06 10:54:18;;;;;;;6.35;3.70;;;;;;;26.35;33.27;93502.66;5030261;28;20117;-73
2021/04/06 10:56:52;;;;;;;6.65;3.78;;;;;;;26.49;33.01;93501.03;5035011;28;20017;-69
2021/04/06 10:59:31;;;;;;;5.65;3.40;;;;;;;26.48;33.00;93505.06;5038651;28;20023;-69
2021/04/06 11:01:56;;;;;;;5.30;3.80;;;;;;;26.47;32.90;93492.66;5045899;28;20035;-69
2021/04/06 11:04:27;;;;;;;5.50;3.90;;;;;;;26.48;32.69;93494.09;5036752;28;20049;-69
2021/04/06 11:07:00;;;;;;;4.65;3.50;;;;;;;26.51;32.67;93487.50;5045374;28;20079;-69
2021/04/06 11:09:27;;;;;;;4.30;3.40;;;;;;;26.52;32.65;93488.97;5037714;28;20029;-69
2021/04/06 11:11:55;;;;;;;4.57;3.65;;;;;;;26.48;32.82;93469.47;5044555;28;20028;-69
2021/04/06 11:14:23;;;;;;;4.78;3.50;;;;;;;26.42;32.63;93463.53;5038009;28;20074;-69
2021/04/06 11:16:49;;;;;;;5.53;3.58;;;;;;;26.40;32.64;93463.38;5043743;28;20497;-69
2021/04/06 11:19:17;;;;;;;6.10;3.38;;;;;;;26.34;32.89;93468.38;5040576;28;20035;-69
2021/04/06 11:21:47;;;;;;;6.05;3.80;;;;;;;26.37;32.93;93456.28;5039170;28;20072;-69
2021/04/06 11:24:13;;;;;;;4.47;3.45;;;;;;;26.27;32.98;93452.72;5038630;28;20021;-68
2021/04/06 11:26:38;;;;;;;4.32;3.30;;;;;;;26.23;33.05;93441.44;5039541;28;20021;-68
2021/04/06 11:29:05;;;;;;;4.90;3.60;;;;;;;26.15;33.18;93435.34;5025683;28;20111;-68
2021/04/06 11:31:31;;;;;;;4.50;3.53;;;;;;;26.11;33.05;93440.50;5037515;28;20033;-69
2021/04/06 11:33:57;;;;;;;5.00;3.83;;;;;;;26.05;33.40;93431.84;5030030;28;20409;-68
2021/04/06 11:36:22;;;;;;;5.55;3.40;;;;;;;26.09;33.38;93426.66;5033737;28;20033;-68
2021/04/06 11:38:49;;;;;;;4.97;3.42;;;;;;;26.05;33.56;93423.63;5039306;28;20027;-70
2021/04/06 11:41:16;;;;;;;4.25;3.17;;;;;;;25.90;33.70;93412.84;5028281;28;20029;-69
2021/04/06 11:43:41;;;;;;;4.07;3.20;;;;;;;25.92;33.30;93418.47;5033895;28;20038;-69